Página principal
METAR-TAF:

METAR-TAF

Aeroportos :

Keokuk Municipal Airport

Keokuk, Iowa, Estados Unidos

latitude: 40-28N, longitude: 091-26W, altura: 205 m

Observação actual do tempo

O boletim foi feito há 26 minutos, às 12:35 UTC
Vento 10 kt de su-sudoeste
Temperatura 23°C
Humidade 89%
Pressão 1012 hPa
Visibilidade: 16.1 km
Nuvens dispersasa uma altura de 7500 ft
Nuvens dispersasa uma altura de 8500 ft

METAR: KEOK 031235Z AUTO 21010KT 10SM SCT075 SCT085 23/21 A2987 RMK AO2

Hora: 08:01 (13:01 UTC)


TAF: em falta

Observações e previsões do tempo de mais de 4000 aeroportos (mensagens METAR e TAF).

As estações disponíveis são os pontos amarelos e vermelhos sobre o mapa.

Mova o rato sobre o mapa para ver o nome da estação.

Depois clique no ponto para visualizar as observações e previsões meteorológicas.

Para alterar o mapa : clique nos botões verdes com uma cruz preta para aumentar o zoom; no botão verde com uma pitada de zoom; ou nas setas verdes para mapas adjacentes.


METAR-TAF: